Eloy, AZ (85131)

11:05 AM MST on February 19, 2017 (GMT -0700)
MAS132 | | Change Station

Elev 1482 ft 32.82 °N, 111.63 °W | Updated 40 seconds ago

Overcast
Overcast
54.0 °F
Feels Like 54.0 °F
N
2.0
Wind Variable Wind from SSW
Gusts 3.0 mph

Today
High -- | Low -- °F
--% Chance of Precip.
Yesterday
High -- | Low -- °F
Precip. -- in
Pressure 29.96 in
Visibility 10.0 miles
Clouds Few 1500 ft
Overcast 3000 ft
Dew Point 49 °F
Humidity 83%
Rainfall 0.29 in
Snow Depth Not available.
7:04 AM 6:15 PM
Last Quarter, 41% visible
METAR KCHD 191747Z 13012KT 10SM FEW015 OVC030 13/10 A2996
Pressure 29.96 in
Visibility 10.0 miles
Clouds Few 1500 ft
Overcast 3000 ft
Dew Point 49 °F
Humidity 83%
Rainfall 0.29 in
Snow Depth Not available.
7:04 AM 6:15 PM
Last Quarter, 41% visible
METAR KCHD 191747Z 13012KT 10SM FEW015 OVC030 13/10 A2996

Get Your Daily Forecast Email!

Thanks for signing up!

Be on the lookout for a verification email in your inbox.

You'll start receiving the daily forecast at 8 AM.

×

10-Day Weather Forecast

Almanac

Astronomy

Feb. 19, 2017 Rise Set
Actual Time
Civil Twilight
Nautical Twilight
Astronomical Twilight
Moon
Length of Visible Light
Length of Day
Tomorrow will be .
, % of the Moon is Illuminated

Today's Extremes

State Highs State Lows

Community

WunderPhotos

Upload Photos

1,962,540 photos uploaded!

WunderBlog® & News

Nearby

Air Quality

  Air Quality AQ Index Pollutant
Not available.

Snow Depth

Station Depth Elevation

Earthquake Activity

City Distance Mag. Time & Date
Minimum magnitude displayed is 2.5.

Coastal Water Temperatures

Place Temperature

Stations

Nearby Weather Stations

Station Location Temp. Windchill Dew Point Humidity Wind Precip. Elev Updated Type
                   

Watches & Warnings

There are currently no watches in effect.